sensor_id;sensor_type;location;lat;lon;timestamp;temperature;humidity
21676;DHT22;10999;51.332;9.458;2022-08-20T00:02:08;20.30;55.50
21676;DHT22;10999;51.332;9.458;2022-08-20T00:04:35;20.30;56.20
21676;DHT22;10999;51.332;9.458;2022-08-20T00:07:05;20.30;56.50
21676;DHT22;10999;51.332;9.458;2022-08-20T00:09:32;20.30;57.00
21676;DHT22;10999;51.332;9.458;2022-08-20T00:12:03;20.30;57.20
21676;DHT22;10999;51.332;9.458;2022-08-20T00:14:30;20.30;58.00
21676;DHT22;10999;51.332;9.458;2022-08-20T00:16:59;20.30;58.60
21676;DHT22;10999;51.332;9.458;2022-08-20T00:19:27;20.30;59.40
21676;DHT22;10999;51.332;9.458;2022-08-20T00:21:53;20.20;60.00
21676;DHT22;10999;51.332;9.458;2022-08-20T00:24:24;20.10;61.00
21676;DHT22;10999;51.332;9.458;2022-08-20T00:26:51;20.10;61.40
21676;DHT22;10999;51.332;9.458;2022-08-20T00:29:19;20.10;62.30
21676;DHT22;10999;51.332;9.458;2022-08-20T00:31:47;20.10;63.70
21676;DHT22;10999;51.332;9.458;2022-08-20T00:34:14;20.00;63.30
21676;DHT22;10999;51.332;9.458;2022-08-20T00:36:41;20.00;63.90
21676;DHT22;10999;51.332;9.458;2022-08-20T00:39:07;19.90;64.40
21676;DHT22;10999;51.332;9.458;2022-08-20T00:41:34;19.90;64.90
21676;DHT22;10999;51.332;9.458;2022-08-20T00:46:31;19.80;66.40
21676;DHT22;10999;51.332;9.458;2022-08-20T00:48:58;19.80;66.60
21676;DHT22;10999;51.332;9.458;2022-08-20T00:51:40;19.70;68.00
21676;DHT22;10999;51.332;9.458;2022-08-20T00:54:33;19.70;68.30
21676;DHT22;10999;51.332;9.458;2022-08-20T00:57:08;19.70;68.10
21676;DHT22;10999;51.332;9.458;2022-08-20T00:59:36;19.70;68.30
21676;DHT22;10999;51.332;9.458;2022-08-20T01:02:09;19.70;67.70
21676;DHT22;10999;51.332;9.458;2022-08-20T01:04:37;19.60;67.20
21676;DHT22;10999;51.332;9.458;2022-08-20T01:07:05;19.60;67.10
21676;DHT22;10999;51.332;9.458;2022-08-20T01:09:35;19.60;67.00
21676;DHT22;10999;51.332;9.458;2022-08-20T01:12:23;19.50;67.50
21676;DHT22;10999;51.332;9.458;2022-08-20T01:14:50;19.40;67.50
21676;DHT22;10999;51.332;9.458;2022-08-20T01:17:22;19.40;67.60
21676;DHT22;10999;51.332;9.458;2022-08-20T01:20:14;19.30;67.70
21676;DHT22;10999;51.332;9.458;2022-08-20T01:25:40;19.20;69.90
21676;DHT22;10999;51.332;9.458;2022-08-20T01:28:10;19.10;71.50
21676;DHT22;10999;51.332;9.458;2022-08-20T01:30:37;19.10;73.70
21676;DHT22;10999;51.332;9.458;2022-08-20T01:33:05;19.10;74.50
21676;DHT22;10999;51.332;9.458;2022-08-20T01:35:38;19.10;75.50
21676;DHT22;10999;51.332;9.458;2022-08-20T01:38:06;19.00;75.40
21676;DHT22;10999;51.332;9.458;2022-08-20T01:43:37;19.00;76.60
21676;DHT22;10999;51.332;9.458;2022-08-20T01:46:06;19.00;76.80
21676;DHT22;10999;51.332;9.458;2022-08-20T01:48:36;19.00;77.80
21676;DHT22;10999;51.332;9.458;2022-08-20T01:51:14;19.00;77.90
21676;DHT22;10999;51.332;9.458;2022-08-20T01:53:46;19.00;77.60
21676;DHT22;10999;51.332;9.458;2022-08-20T01:56:19;19.00;77.50
21676;DHT22;10999;51.332;9.458;2022-08-20T01:58:49;19.00;77.90
21676;DHT22;10999;51.332;9.458;2022-08-20T02:03:54;19.00;77.80
21676;DHT22;10999;51.332;9.458;2022-08-20T02:06:23;18.90;78.80
21676;DHT22;10999;51.332;9.458;2022-08-20T02:08:56;18.90;79.40
21676;DHT22;10999;51.332;9.458;2022-08-20T02:11:23;18.90;80.60
21676;DHT22;10999;51.332;9.458;2022-08-20T02:13:51;18.90;81.30
21676;DHT22;10999;51.332;9.458;2022-08-20T02:16:27;18.90;82.50
21676;DHT22;10999;51.332;9.458;2022-08-20T02:19:00;19.00;81.60
21676;DHT22;10999;51.332;9.458;2022-08-20T02:21:30;19.00;81.80
21676;DHT22;10999;51.332;9.458;2022-08-20T02:23:58;19.00;81.90
21676;DHT22;10999;51.332;9.458;2022-08-20T02:26:25;19.00;82.10
21676;DHT22;10999;51.332;9.458;2022-08-20T02:28:52;19.00;82.00
21676;DHT22;10999;51.332;9.458;2022-08-20T02:31:21;19.10;82.90
21676;DHT22;10999;51.332;9.458;2022-08-20T02:33:48;19.00;82.10
21676;DHT22;10999;51.332;9.458;2022-08-20T02:36:36;19.10;82.20
21676;DHT22;10999;51.332;9.458;2022-08-20T02:39:07;19.10;82.20
21676;DHT22;10999;51.332;9.458;2022-08-20T02:41:34;19.10;82.40
21676;DHT22;10999;51.332;9.458;2022-08-20T02:44:02;19.00;81.90
21676;DHT22;10999;51.332;9.458;2022-08-20T02:46:29;19.00;82.20
21676;DHT22;10999;51.332;9.458;2022-08-20T02:48:57;19.00;80.80
21676;DHT22;10999;51.332;9.458;2022-08-20T02:51:24;19.10;80.20
21676;DHT22;10999;51.332;9.458;2022-08-20T02:53:56;19.00;78.80
21676;DHT22;10999;51.332;9.458;2022-08-20T02:56:23;19.00;77.10
21676;DHT22;10999;51.332;9.458;2022-08-20T02:58:49;18.90;76.40
21676;DHT22;10999;51.332;9.458;2022-08-20T03:01:16;18.80;75.10
21676;DHT22;10999;51.332;9.458;2022-08-20T03:03:43;18.80;73.90
21676;DHT22;10999;51.332;9.458;2022-08-20T03:06:11;18.80;73.80
21676;DHT22;10999;51.332;9.458;2022-08-20T03:08:38;18.70;74.40
21676;DHT22;10999;51.332;9.458;2022-08-20T03:11:06;18.70;74.80
21676;DHT22;10999;51.332;9.458;2022-08-20T03:13:33;18.70;75.10
21676;DHT22;10999;51.332;9.458;2022-08-20T03:16:01;18.70;75.20
21676;DHT22;10999;51.332;9.458;2022-08-20T03:18:33;18.70;75.30
21676;DHT22;10999;51.332;9.458;2022-08-20T03:21:00;18.60;75.40
21676;DHT22;10999;51.332;9.458;2022-08-20T03:23:27;18.60;75.10
21676;DHT22;10999;51.332;9.458;2022-08-20T03:25:54;18.60;75.50
21676;DHT22;10999;51.332;9.458;2022-08-20T03:28:21;18.50;75.40
21676;DHT22;10999;51.332;9.458;2022-08-20T03:30:48;18.50;75.40
21676;DHT22;10999;51.332;9.458;2022-08-20T03:33:17;18.50;75.60
21676;DHT22;10999;51.332;9.458;2022-08-20T03:35:46;18.50;76.00
21676;DHT22;10999;51.332;9.458;2022-08-20T03:38:15;18.50;76.60
21676;DHT22;10999;51.332;9.458;2022-08-20T03:40:42;18.50;76.50
21676;DHT22;10999;51.332;9.458;2022-08-20T03:43:09;18.50;76.20
21676;DHT22;10999;51.332;9.458;2022-08-20T03:45:37;18.50;76.10
21676;DHT22;10999;51.332;9.458;2022-08-20T03:48:06;18.50;76.00
21676;DHT22;10999;51.332;9.458;2022-08-20T03:50:33;18.50;75.80
21676;DHT22;10999;51.332;9.458;2022-08-20T03:53:00;18.50;75.40
21676;DHT22;10999;51.332;9.458;2022-08-20T03:55:29;18.50;75.20
21676;DHT22;10999;51.332;9.458;2022-08-20T03:57:59;18.50;75.40
21676;DHT22;10999;51.332;9.458;2022-08-20T04:00:37;18.50;75.60
21676;DHT22;10999;51.332;9.458;2022-08-20T04:03:05;18.50;76.00
21676;DHT22;10999;51.332;9.458;2022-08-20T04:05:34;18.50;75.60
21676;DHT22;10999;51.332;9.458;2022-08-20T04:08:20;18.50;75.60
21676;DHT22;10999;51.332;9.458;2022-08-20T04:10:49;18.40;75.40
21676;DHT22;10999;51.332;9.458;2022-08-20T04:13:18;18.40;75.10
21676;DHT22;10999;51.332;9.458;2022-08-20T04:15:48;18.40;74.50
21676;DHT22;10999;51.332;9.458;2022-08-20T04:18:16;18.40;74.30
21676;DHT22;10999;51.332;9.458;2022-08-20T04:20:48;18.40;74.80
21676;DHT22;10999;51.332;9.458;2022-08-20T04:23:15;18.40;74.80
21676;DHT22;10999;51.332;9.458;2022-08-20T04:25:45;18.40;74.70
21676;DHT22;10999;51.332;9.458;2022-08-20T04:28:20;18.40;74.40
21676;DHT22;10999;51.332;9.458;2022-08-20T04:30:51;18.40;74.30
21676;DHT22;10999;51.332;9.458;2022-08-20T04:33:19;18.40;74.70
21676;DHT22;10999;51.332;9.458;2022-08-20T04:35:59;18.40;74.70
21676;DHT22;10999;51.332;9.458;2022-08-20T04:38:30;18.40;74.80
21676;DHT22;10999;51.332;9.458;2022-08-20T04:41:19;18.40;75.10
21676;DHT22;10999;51.332;9.458;2022-08-20T04:43:51;18.40;74.90
21676;DHT22;10999;51.332;9.458;2022-08-20T04:46:20;18.40;74.90
21676;DHT22;10999;51.332;9.458;2022-08-20T04:48:47;18.40;75.10
21676;DHT22;10999;51.332;9.458;2022-08-20T04:51:16;18.50;75.40
21676;DHT22;10999;51.332;9.458;2022-08-20T04:53:44;18.40;75.50
21676;DHT22;10999;51.332;9.458;2022-08-20T04:56:18;18.50;75.70
21676;DHT22;10999;51.332;9.458;2022-08-20T04:58:50;18.50;76.10
21676;DHT22;10999;51.332;9.458;2022-08-20T05:01:17;18.40;76.00
21676;DHT22;10999;51.332;9.458;2022-08-20T05:03:44;18.50;76.20
21676;DHT22;10999;51.332;9.458;2022-08-20T05:06:13;18.40;76.10
21676;DHT22;10999;51.332;9.458;2022-08-20T05:08:41;18.40;76.30
21676;DHT22;10999;51.332;9.458;2022-08-20T05:11:09;18.40;76.50
21676;DHT22;10999;51.332;9.458;2022-08-20T05:13:56;18.40;76.40
21676;DHT22;10999;51.332;9.458;2022-08-20T05:16:22;18.40;76.40
21676;DHT22;10999;51.332;9.458;2022-08-20T05:18:50;18.40;76.50
21676;DHT22;10999;51.332;9.458;2022-08-20T05:21:19;18.40;76.60
21676;DHT22;10999;51.332;9.458;2022-08-20T05:23:46;18.40;76.80
21676;DHT22;10999;51.332;9.458;2022-08-20T05:26:14;18.40;76.70
21676;DHT22;10999;51.332;9.458;2022-08-20T05:28:41;18.40;77.00
21676;DHT22;10999;51.332;9.458;2022-08-20T05:31:23;18.40;78.50
21676;DHT22;10999;51.332;9.458;2022-08-20T05:34:02;18.40;79.50
21676;DHT22;10999;51.332;9.458;2022-08-20T05:36:29;18.50;85.50
21676;DHT22;10999;51.332;9.458;2022-08-20T05:38:56;18.40;88.20
21676;DHT22;10999;51.332;9.458;2022-08-20T05:41:22;18.50;89.40
21676;DHT22;10999;51.332;9.458;2022-08-20T05:43:58;18.40;90.30
21676;DHT22;10999;51.332;9.458;2022-08-20T05:46:29;18.30;91.10
21676;DHT22;10999;51.332;9.458;2022-08-20T05:48:57;18.30;91.00
21676;DHT22;10999;51.332;9.458;2022-08-20T05:51:26;18.20;91.70
21676;DHT22;10999;51.332;9.458;2022-08-20T05:53:53;18.20;92.10
21676;DHT22;10999;51.332;9.458;2022-08-20T05:56:22;18.10;91.70
21676;DHT22;10999;51.332;9.458;2022-08-20T05:58:52;18.10;92.90
21676;DHT22;10999;51.332;9.458;2022-08-20T06:01:19;18.10;93.70
21676;DHT22;10999;51.332;9.458;2022-08-20T06:03:46;18.00;94.00
21676;DHT22;10999;51.332;9.458;2022-08-20T06:06:32;18.10;94.40
21676;DHT22;10999;51.332;9.458;2022-08-20T06:09:15;18.10;94.80
21676;DHT22;10999;51.332;9.458;2022-08-20T06:11:59;18.00;94.80
21676;DHT22;10999;51.332;9.458;2022-08-20T06:14:26;18.00;95.20
21676;DHT22;10999;51.332;9.458;2022-08-20T06:16:52;18.00;95.30
21676;DHT22;10999;51.332;9.458;2022-08-20T06:19:25;18.00;95.60
21676;DHT22;10999;51.332;9.458;2022-08-20T06:21:52;18.00;95.50
21676;DHT22;10999;51.332;9.458;2022-08-20T06:24:19;18.10;95.50
21676;DHT22;10999;51.332;9.458;2022-08-20T06:26:46;18.10;95.60
21676;DHT22;10999;51.332;9.458;2022-08-20T06:29:14;18.10;95.70
21676;DHT22;10999;51.332;9.458;2022-08-20T06:31:41;18.20;96.20
21676;DHT22;10999;51.332;9.458;2022-08-20T06:34:08;18.20;95.80
21676;DHT22;10999;51.332;9.458;2022-08-20T06:36:34;18.20;95.00
21676;DHT22;10999;51.332;9.458;2022-08-20T06:39:01;18.20;94.70
21676;DHT22;10999;51.332;9.458;2022-08-20T06:41:28;18.30;94.30
21676;DHT22;10999;51.332;9.458;2022-08-20T06:44:02;18.30;94.10
21676;DHT22;10999;51.332;9.458;2022-08-20T06:46:29;18.30;94.10
21676;DHT22;10999;51.332;9.458;2022-08-20T06:48:55;18.40;94.70
21676;DHT22;10999;51.332;9.458;2022-08-20T06:51:22;18.40;95.00
21676;DHT22;10999;51.332;9.458;2022-08-20T06:53:48;18.40;95.00
21676;DHT22;10999;51.332;9.458;2022-08-20T06:56:15;18.50;95.30
21676;DHT22;10999;51.332;9.458;2022-08-20T06:58:42;18.50;94.10
21676;DHT22;10999;51.332;9.458;2022-08-20T07:01:10;18.60;94.30
21676;DHT22;10999;51.332;9.458;2022-08-20T07:03:38;18.60;93.80
21676;DHT22;10999;51.332;9.458;2022-08-20T07:06:19;18.60;93.50
21676;DHT22;10999;51.332;9.458;2022-08-20T07:08:46;18.60;93.80
21676;DHT22;10999;51.332;9.458;2022-08-20T07:11:13;18.70;94.10
21676;DHT22;10999;51.332;9.458;2022-08-20T07:13:39;18.70;94.20
21676;DHT22;10999;51.332;9.458;2022-08-20T07:16:07;18.80;92.50
21676;DHT22;10999;51.332;9.458;2022-08-20T07:18:34;18.80;91.20
21676;DHT22;10999;51.332;9.458;2022-08-20T07:21:01;18.80;92.00
21676;DHT22;10999;51.332;9.458;2022-08-20T07:23:28;18.90;92.20
21676;DHT22;10999;51.332;9.458;2022-08-20T07:25:56;18.90;93.30
21676;DHT22;10999;51.332;9.458;2022-08-20T07:28:25;19.00;93.70
21676;DHT22;10999;51.332;9.458;2022-08-20T07:30:56;19.10;93.80
21676;DHT22;10999;51.332;9.458;2022-08-20T07:33:45;19.20;93.80
21676;DHT22;10999;51.332;9.458;2022-08-20T07:36:16;19.20;93.70
21676;DHT22;10999;51.332;9.458;2022-08-20T07:38:43;19.30;93.60
21676;DHT22;10999;51.332;9.458;2022-08-20T07:41:13;19.30;90.80
21676;DHT22;10999;51.332;9.458;2022-08-20T07:43:41;19.40;91.10
21676;DHT22;10999;51.332;9.458;2022-08-20T07:46:12;19.40;91.10
21676;DHT22;10999;51.332;9.458;2022-08-20T07:48:41;19.40;91.00
21676;DHT22;10999;51.332;9.458;2022-08-20T07:51:13;19.50;91.70
21676;DHT22;10999;51.332;9.458;2022-08-20T07:53:43;19.40;90.70
21676;DHT22;10999;51.332;9.458;2022-08-20T07:56:13;19.50;90.20
21676;DHT22;10999;51.332;9.458;2022-08-20T07:58:45;19.40;90.20
21676;DHT22;10999;51.332;9.458;2022-08-20T08:01:23;19.40;89.70
21676;DHT22;10999;51.332;9.458;2022-08-20T08:03:55;19.40;89.60
21676;DHT22;10999;51.332;9.458;2022-08-20T08:06:23;19.40;89.30
21676;DHT22;10999;51.332;9.458;2022-08-20T08:09:08;19.40;89.20
21676;DHT22;10999;51.332;9.458;2022-08-20T08:11:39;19.50;89.50
21676;DHT22;10999;51.332;9.458;2022-08-20T08:14:13;19.60;90.30
21676;DHT22;10999;51.332;9.458;2022-08-20T08:16:40;19.60;90.50
21676;DHT22;10999;51.332;9.458;2022-08-20T08:19:11;19.70;89.90
21676;DHT22;10999;51.332;9.458;2022-08-20T08:21:40;19.80;89.00
21676;DHT22;10999;51.332;9.458;2022-08-20T08:24:07;19.90;88.50
21676;DHT22;10999;51.332;9.458;2022-08-20T08:26:34;20.00;89.60
21676;DHT22;10999;51.332;9.458;2022-08-20T08:29:00;20.10;88.20
21676;DHT22;10999;51.332;9.458;2022-08-20T08:31:28;20.30;84.60
21676;DHT22;10999;51.332;9.458;2022-08-20T08:33:54;20.30;86.10
21676;DHT22;10999;51.332;9.458;2022-08-20T08:36:21;20.40;87.30
21676;DHT22;10999;51.332;9.458;2022-08-20T08:38:48;20.40;83.80
21676;DHT22;10999;51.332;9.458;2022-08-20T08:41:36;20.30;84.00
21676;DHT22;10999;51.332;9.458;2022-08-20T08:44:09;20.30;85.20
21676;DHT22;10999;51.332;9.458;2022-08-20T08:46:41;20.30;84.90
21676;DHT22;10999;51.332;9.458;2022-08-20T08:49:12;20.30;87.30
21676;DHT22;10999;51.332;9.458;2022-08-20T08:52:16;20.30;87.30
21676;DHT22;10999;51.332;9.458;2022-08-20T08:54:44;20.40;86.60
21676;DHT22;10999;51.332;9.458;2022-08-20T08:57:12;20.60;86.40
21676;DHT22;10999;51.332;9.458;2022-08-20T08:59:39;20.80;87.40
21676;DHT22;10999;51.332;9.458;2022-08-20T09:02:28;21.10;87.50
21676;DHT22;10999;51.332;9.458;2022-08-20T09:04:58;21.40;84.70
21676;DHT22;10999;51.332;9.458;2022-08-20T09:07:29;21.60;84.00
21676;DHT22;10999;51.332;9.458;2022-08-20T09:09:56;21.70;77.90
21676;DHT22;10999;51.332;9.458;2022-08-20T09:12:24;21.80;80.30
21676;DHT22;10999;51.332;9.458;2022-08-20T09:14:53;21.90;76.10
21676;DHT22;10999;51.332;9.458;2022-08-20T09:17:21;22.00;74.90
21676;DHT22;10999;51.332;9.458;2022-08-20T09:19:49;22.00;72.90
21676;DHT22;10999;51.332;9.458;2022-08-20T09:22:20;22.00;73.10
21676;DHT22;10999;51.332;9.458;2022-08-20T09:24:48;22.20;76.10
21676;DHT22;10999;51.332;9.458;2022-08-20T09:27:15;22.30;72.70
21676;DHT22;10999;51.332;9.458;2022-08-20T09:29:41;22.30;72.90
21676;DHT22;10999;51.332;9.458;2022-08-20T09:32:12;22.30;73.40
21676;DHT22;10999;51.332;9.458;2022-08-20T09:34:42;22.20;75.90
21676;DHT22;10999;51.332;9.458;2022-08-20T09:37:10;22.20;74.80
21676;DHT22;10999;51.332;9.458;2022-08-20T09:39:37;22.20;75.70
21676;DHT22;10999;51.332;9.458;2022-08-20T09:44:34;22.20;73.30
21676;DHT22;10999;51.332;9.458;2022-08-20T09:47:00;22.10;71.70
21676;DHT22;10999;51.332;9.458;2022-08-20T09:49:27;22.00;71.50
21676;DHT22;10999;51.332;9.458;2022-08-20T09:51:54;22.00;68.90
21676;DHT22;10999;51.332;9.458;2022-08-20T09:54:21;22.00;70.30
21676;DHT22;10999;51.332;9.458;2022-08-20T09:56:48;22.20;70.40
21676;DHT22;10999;51.332;9.458;2022-08-20T09:59:15;22.60;69.70
21676;DHT22;10999;51.332;9.458;2022-08-20T10:01:41;22.70;67.80
21676;DHT22;10999;51.332;9.458;2022-08-20T10:04:08;22.90;65.30
21676;DHT22;10999;51.332;9.458;2022-08-20T10:06:38;23.00;65.90
21676;DHT22;10999;51.332;9.458;2022-08-20T10:09:05;23.30;68.10
21676;DHT22;10999;51.332;9.458;2022-08-20T10:11:32;23.60;65.00
21676;DHT22;10999;51.332;9.458;2022-08-20T10:13:59;23.80;63.80
21676;DHT22;10999;51.332;9.458;2022-08-20T10:16:25;24.10;60.70
21676;DHT22;10999;51.332;9.458;2022-08-20T10:18:52;24.30;54.50
21676;DHT22;10999;51.332;9.458;2022-08-20T10:21:19;24.40;56.20
21676;DHT22;10999;51.332;9.458;2022-08-20T10:23:46;24.60;51.50
21676;DHT22;10999;51.332;9.458;2022-08-20T10:26:13;24.90;48.70
21676;DHT22;10999;51.332;9.458;2022-08-20T10:28:40;25.10;50.30
21676;DHT22;10999;51.332;9.458;2022-08-20T10:31:08;25.30;50.10
21676;DHT22;10999;51.332;9.458;2022-08-20T10:33:37;25.40;45.30
21676;DHT22;10999;51.332;9.458;2022-08-20T10:36:09;25.40;44.00
21676;DHT22;10999;51.332;9.458;2022-08-20T10:38:36;25.10;42.10
21676;DHT22;10999;51.332;9.458;2022-08-20T10:41:03;25.00;46.40
21676;DHT22;10999;51.332;9.458;2022-08-20T10:43:30;24.90;48.20
21676;DHT22;10999;51.332;9.458;2022-08-20T10:45:56;25.10;47.40
21676;DHT22;10999;51.332;9.458;2022-08-20T10:48:23;25.20;45.70
21676;DHT22;10999;51.332;9.458;2022-08-20T10:50:50;25.30;42.00
21676;DHT22;10999;51.332;9.458;2022-08-20T10:53:17;25.60;39.80
21676;DHT22;10999;51.332;9.458;2022-08-20T10:55:43;26.00;42.00
21676;DHT22;10999;51.332;9.458;2022-08-20T10:58:10;25.80;38.50
21676;DHT22;10999;51.332;9.458;2022-08-20T11:00:39;25.60;42.60
21676;DHT22;10999;51.332;9.458;2022-08-20T11:03:07;25.40;38.20
21676;DHT22;10999;51.332;9.458;2022-08-20T11:05:34;25.10;42.50
21676;DHT22;10999;51.332;9.458;2022-08-20T11:08:01;24.80;44.10
21676;DHT22;10999;51.332;9.458;2022-08-20T11:10:31;24.60;45.20
21676;DHT22;10999;51.332;9.458;2022-08-20T11:13:00;24.30;45.50
21676;DHT22;10999;51.332;9.458;2022-08-20T11:15:28;24.30;47.40
21676;DHT22;10999;51.332;9.458;2022-08-20T11:17:55;24.10;48.40
21676;DHT22;10999;51.332;9.458;2022-08-20T11:20:23;24.00;50.20
21676;DHT22;10999;51.332;9.458;2022-08-20T11:22:52;24.00;53.00
21676;DHT22;10999;51.332;9.458;2022-08-20T11:25:19;24.00;51.00
21676;DHT22;10999;51.332;9.458;2022-08-20T11:27:48;24.10;50.00
21676;DHT22;10999;51.332;9.458;2022-08-20T11:30:27;24.40;53.20
21676;DHT22;10999;51.332;9.458;2022-08-20T11:32:56;24.70;50.80
21676;DHT22;10999;51.332;9.458;2022-08-20T11:35:23;24.90;46.60
21676;DHT22;10999;51.332;9.458;2022-08-20T11:38:10;24.80;44.60
21676;DHT22;10999;51.332;9.458;2022-08-20T11:40:37;24.90;44.60
21676;DHT22;10999;51.332;9.458;2022-08-20T11:43:04;24.90;44.40
21676;DHT22;10999;51.332;9.458;2022-08-20T11:45:45;25.00;46.30
21676;DHT22;10999;51.332;9.458;2022-08-20T11:48:13;24.90;43.20
21676;DHT22;10999;51.332;9.458;2022-08-20T11:50:39;24.70;40.30
21676;DHT22;10999;51.332;9.458;2022-08-20T11:53:06;24.70;44.40
21676;DHT22;10999;51.332;9.458;2022-08-20T11:55:34;24.70;42.10
21676;DHT22;10999;51.332;9.458;2022-08-20T11:58:01;24.60;44.90
21676;DHT22;10999;51.332;9.458;2022-08-20T12:00:29;24.60;41.20
21676;DHT22;10999;51.332;9.458;2022-08-20T12:03:03;24.50;41.90
21676;DHT22;10999;51.332;9.458;2022-08-20T12:05:31;24.30;44.90
21676;DHT22;10999;51.332;9.458;2022-08-20T12:08:01;24.00;47.20
21676;DHT22;10999;51.332;9.458;2022-08-20T12:10:28;23.60;49.30
21676;DHT22;10999;51.332;9.458;2022-08-20T12:12:55;23.20;52.30
21676;DHT22;10999;51.332;9.458;2022-08-20T12:15:23;22.80;60.70
21676;DHT22;10999;51.332;9.458;2022-08-20T12:17:52;22.30;65.50
21676;DHT22;10999;51.332;9.458;2022-08-20T12:20:19;22.00;72.30
21676;DHT22;10999;51.332;9.458;2022-08-20T12:22:45;21.60;72.60
21676;DHT22;10999;51.332;9.458;2022-08-20T12:25:12;21.30;75.50
21676;DHT22;10999;51.332;9.458;2022-08-20T12:27:39;21.10;77.90
21676;DHT22;10999;51.332;9.458;2022-08-20T12:30:13;21.10;81.50
21676;DHT22;10999;51.332;9.458;2022-08-20T12:32:41;21.00;81.80
21676;DHT22;10999;51.332;9.458;2022-08-20T12:35:08;20.80;80.40
21676;DHT22;10999;51.332;9.458;2022-08-20T12:37:35;20.80;82.50
21676;DHT22;10999;51.332;9.458;2022-08-20T12:40:07;20.80;83.50
21676;DHT22;10999;51.332;9.458;2022-08-20T12:42:35;20.80;82.70
21676;DHT22;10999;51.332;9.458;2022-08-20T12:45:02;20.80;84.40
21676;DHT22;10999;51.332;9.458;2022-08-20T12:47:33;20.90;84.10
21676;DHT22;10999;51.332;9.458;2022-08-20T12:50:05;20.90;82.10
21676;DHT22;10999;51.332;9.458;2022-08-20T12:52:33;21.00;82.00
21676;DHT22;10999;51.332;9.458;2022-08-20T12:55:01;21.10;82.30
21676;DHT22;10999;51.332;9.458;2022-08-20T12:57:35;21.20;81.30
21676;DHT22;10999;51.332;9.458;2022-08-20T13:00:06;21.30;80.60
21676;DHT22;10999;51.332;9.458;2022-08-20T13:02:34;21.40;79.00
21676;DHT22;10999;51.332;9.458;2022-08-20T13:05:00;21.50;79.60
21676;DHT22;10999;51.332;9.458;2022-08-20T13:07:31;21.60;78.90
21676;DHT22;10999;51.332;9.458;2022-08-20T13:09:59;21.60;80.80
21676;DHT22;10999;51.332;9.458;2022-08-20T13:12:26;21.70;80.30
21676;DHT22;10999;51.332;9.458;2022-08-20T13:14:53;21.80;80.30
21676;DHT22;10999;51.332;9.458;2022-08-20T13:17:20;21.90;81.10
21676;DHT22;10999;51.332;9.458;2022-08-20T13:20:06;22.00;80.50
21676;DHT22;10999;51.332;9.458;2022-08-20T13:22:33;22.00;78.60
21676;DHT22;10999;51.332;9.458;2022-08-20T13:25:00;22.00;78.10
21676;DHT22;10999;51.332;9.458;2022-08-20T13:27:26;22.00;75.50
21676;DHT22;10999;51.332;9.458;2022-08-20T13:29:54;21.90;75.90
21676;DHT22;10999;51.332;9.458;2022-08-20T13:32:24;22.00;77.40
21676;DHT22;10999;51.332;9.458;2022-08-20T13:34:52;21.90;76.80
21676;DHT22;10999;51.332;9.458;2022-08-20T13:37:22;21.80;75.10
21676;DHT22;10999;51.332;9.458;2022-08-20T13:39:52;21.80;73.20
21676;DHT22;10999;51.332;9.458;2022-08-20T13:42:19;21.70;73.50
21676;DHT22;10999;51.332;9.458;2022-08-20T13:44:46;21.70;73.00
21676;DHT22;10999;51.332;9.458;2022-08-20T13:47:17;21.60;72.20
21676;DHT22;10999;51.332;9.458;2022-08-20T13:49:45;21.60;73.70
21676;DHT22;10999;51.332;9.458;2022-08-20T13:52:11;21.60;73.30
21676;DHT22;10999;51.332;9.458;2022-08-20T13:54:42;21.60;75.60
21676;DHT22;10999;51.332;9.458;2022-08-20T13:57:15;21.60;73.70
21676;DHT22;10999;51.332;9.458;2022-08-20T13:59:47;21.60;73.60
21676;DHT22;10999;51.332;9.458;2022-08-20T14:02:15;21.60;75.60
21676;DHT22;10999;51.332;9.458;2022-08-20T14:04:42;21.70;74.50
21676;DHT22;10999;51.332;9.458;2022-08-20T14:09:38;21.70;74.10
21676;DHT22;10999;51.332;9.458;2022-08-20T14:12:06;21.80;75.50
21676;DHT22;10999;51.332;9.458;2022-08-20T14:14:33;22.00;74.80
21676;DHT22;10999;51.332;9.458;2022-08-20T14:17:31;22.00;74.40
21676;DHT22;10999;51.332;9.458;2022-08-20T14:20:00;22.10;75.80
21676;DHT22;10999;51.332;9.458;2022-08-20T14:22:28;22.10;74.50
21676;DHT22;10999;51.332;9.458;2022-08-20T14:24:55;22.10;70.60
21676;DHT22;10999;51.332;9.458;2022-08-20T14:27:23;22.10;74.30
21676;DHT22;10999;51.332;9.458;2022-08-20T14:29:56;22.10;75.30
21676;DHT22;10999;51.332;9.458;2022-08-20T14:32:23;22.10;73.30
21676;DHT22;10999;51.332;9.458;2022-08-20T14:34:50;22.20;72.40
21676;DHT22;10999;51.332;9.458;2022-08-20T14:37:18;22.20;71.20
21676;DHT22;10999;51.332;9.458;2022-08-20T14:39:50;22.30;69.20
21676;DHT22;10999;51.332;9.458;2022-08-20T14:42:18;22.30;65.40
21676;DHT22;10999;51.332;9.458;2022-08-20T14:44:46;22.50;65.40
21676;DHT22;10999;51.332;9.458;2022-08-20T14:47:19;22.80;65.80
21676;DHT22;10999;51.332;9.458;2022-08-20T14:49:47;23.10;61.10
21676;DHT22;10999;51.332;9.458;2022-08-20T14:52:16;23.40;61.30
21676;DHT22;10999;51.332;9.458;2022-08-20T14:54:43;23.50;58.20
21676;DHT22;10999;51.332;9.458;2022-08-20T14:57:13;23.60;56.90
21676;DHT22;10999;51.332;9.458;2022-08-20T14:59:41;23.70;57.30
21676;DHT22;10999;51.332;9.458;2022-08-20T15:02:10;23.90;55.60
21676;DHT22;10999;51.332;9.458;2022-08-20T15:04:38;24.00;55.90
21676;DHT22;10999;51.332;9.458;2022-08-20T15:07:14;24.10;54.60
21676;DHT22;10999;51.332;9.458;2022-08-20T15:09:47;24.10;53.30
21676;DHT22;10999;51.332;9.458;2022-08-20T15:12:14;24.10;53.10
21676;DHT22;10999;51.332;9.458;2022-08-20T15:14:41;24.20;53.10
21676;DHT22;10999;51.332;9.458;2022-08-20T15:17:09;24.10;47.60
21676;DHT22;10999;51.332;9.458;2022-08-20T15:19:36;24.10;51.20
21676;DHT22;10999;51.332;9.458;2022-08-20T15:22:03;24.10;50.00
21676;DHT22;10999;51.332;9.458;2022-08-20T15:24:30;24.20;51.40
21676;DHT22;10999;51.332;9.458;2022-08-20T15:26:56;24.30;52.30
21676;DHT22;10999;51.332;9.458;2022-08-20T15:29:23;24.40;52.30
21676;DHT22;10999;51.332;9.458;2022-08-20T15:31:50;24.60;51.30
21676;DHT22;10999;51.332;9.458;2022-08-20T15:34:17;24.70;47.10
21676;DHT22;10999;51.332;9.458;2022-08-20T15:36:44;24.80;45.70
21676;DHT22;10999;51.332;9.458;2022-08-20T15:39:11;24.80;45.20
21676;DHT22;10999;51.332;9.458;2022-08-20T15:41:37;24.80;43.80
21676;DHT22;10999;51.332;9.458;2022-08-20T15:44:04;24.80;46.50
21676;DHT22;10999;51.332;9.458;2022-08-20T15:46:31;24.90;44.40
21676;DHT22;10999;51.332;9.458;2022-08-20T15:49:07;24.90;44.00
21676;DHT22;10999;51.332;9.458;2022-08-20T15:56:57;24.70;41.70
21676;DHT22;10999;51.332;9.458;2022-08-20T15:59:46;24.60;43.00
21676;DHT22;10999;51.332;9.458;2022-08-20T16:05:31;24.10;45.30
21676;DHT22;10999;51.332;9.458;2022-08-20T16:08:13;24.10;44.80
21676;DHT22;10999;51.332;9.458;2022-08-20T16:11:06;24.10;45.90